Time;durP1;ratioP1;P1;durP2;ratioP2;P2;SDS_P1;SDS_P2;PMS_P1;PMS_P2;Temp;Humidity;BMP_temperature;BMP_pressure;BME280_temperature;BME280_humidity;BME280_pressure;Samples;Min_cycle;Max_cycle;Signal;HPM_P1;HPM_P2
2022/08/03 00:02:05;;;;;;;;;;;25.10;45.00;;;;;;4993692;28;19961;-96
2022/08/03 00:04:31;;;;;;;;;;;25.00;45.10;;;;;;4976948;28;20269;-96
2022/08/03 00:06:56;;;;;;;;;;;24.90;45.20;;;;;;4965799;28;19926;-96
2022/08/03 00:09:22;;;;;;;;;;;24.80;45.20;;;;;;4948576;28;19914;-95
2022/08/03 00:11:47;;;;;;;;;;;24.90;45.40;;;;;;4974452;28;20002;-94
2022/08/03 00:14:13;;;;;;;;;;;24.80;45.40;;;;;;4972297;28;20007;-96
2022/08/03 00:16:38;;;;;;;;;;;24.80;45.40;;;;;;4966398;29;19922;-96
2022/08/03 00:19:04;;;;;;;;;;;24.80;45.50;;;;;;4965619;28;19921;-93
2022/08/03 00:21:29;;;;;;;;;;;24.80;45.60;;;;;;4963066;28;19926;-96
2022/08/03 00:23:55;;;;;;;;;;;24.80;45.60;;;;;;4971575;28;20383;-96
2022/08/03 00:26:21;;;;;;;;;;;24.90;45.60;;;;;;4998277;28;19919;-95
2022/08/03 00:28:47;;;;;;;;;;;24.90;45.60;;;;;;4991517;28;20009;-95
2022/08/03 00:31:12;;;;;;;;;;;25.00;45.70;;;;;;4971021;28;19926;-95
2022/08/03 00:33:38;;;;;;;;;;;25.00;45.80;;;;;;4971933;28;19929;-96
2022/08/03 00:36:03;;;;;;;;;;;25.10;45.70;;;;;;4993926;28;19941;-96
2022/08/03 00:38:29;;;;;;;;;;;25.20;45.70;;;;;;4963736;28;20371;-94
2022/08/03 00:40:55;;;;;;;;;;;25.20;45.70;;;;;;4991362;28;19895;-94
2022/08/03 00:43:23;;;;;;;;;;;25.20;45.60;;;;;;4960310;28;19922;-94
2022/08/03 00:45:49;;;;;;;;;;;25.10;45.60;;;;;;4974630;28;19922;-93
2022/08/03 00:48:17;;;;;;;;;;;25.00;45.60;;;;;;4992896;28;19922;-95
2022/08/03 00:50:43;;;;;;;;;;;25.00;45.80;;;;;;4962817;28;19947;-94
2022/08/03 00:53:10;;;;;;;;;;;24.90;45.90;;;;;;4974026;28;19926;-94
2022/08/03 00:55:36;;;;;;;;;;;24.90;46.00;;;;;;4962996;28;19986;-95
2022/08/03 00:58:05;;;;;;;;;;;24.80;46.00;;;;;;4962911;28;19914;-93
2022/08/03 01:00:31;;;;;;;;;;;24.80;46.10;;;;;;4982519;28;20005;-95
2022/08/03 01:02:56;;;;;;;;;;;24.80;46.10;;;;;;5002793;28;20016;-95
2022/08/03 01:05:22;;;;;;;;;;;24.70;46.10;;;;;;5003774;28;19999;-95
2022/08/03 01:08:00;;;;;;;;;;;24.70;46.30;;;;;;5020145;28;19921;-95
2022/08/03 01:10:26;;;;;;;;;;;24.60;46.30;;;;;;5001715;28;19918;-94
2022/08/03 01:12:56;;;;;;;;;;;24.60;46.50;;;;;;5021366;28;20432;-95
2022/08/03 01:15:33;;;;;;;;;;;24.70;46.50;;;;;;5025174;28;19917;-93
2022/08/03 01:18:02;;;;;;;;;;;24.60;46.60;;;;;;5025836;28;20024;-92
2022/08/03 01:20:31;;;;;;;;;;;24.60;46.60;;;;;;5002686;28;19982;-95
2022/08/03 01:23:16;;;;;;;;;;;24.70;46.60;;;;;;5022152;28;20014;-96
2022/08/03 01:26:14;;;;;;;;;;;24.70;46.60;;;;;;5013606;28;19913;-95
2022/08/03 01:28:51;;;;;;;;;;;24.80;46.60;;;;;;4992650;28;19917;-95
2022/08/03 01:31:20;;;;;;;;;;;24.70;46.60;;;;;;5014586;28;19914;-96
2022/08/03 01:33:48;;;;;;;;;;;24.60;46.70;;;;;;5028431;28;19919;-94
2022/08/03 01:36:21;;;;;;;;;;;24.50;46.80;;;;;;5019649;28;19913;-95
2022/08/03 01:38:49;;;;;;;;;;;24.60;46.80;;;;;;5043058;28;19914;-96
2022/08/03 01:41:20;;;;;;;;;;;24.70;46.80;;;;;;5007564;28;19964;-96
2022/08/03 01:43:48;;;;;;;;;;;24.60;46.80;;;;;;5008056;28;19913;-94
2022/08/03 01:46:14;;;;;;;;;;;24.60;46.90;;;;;;5014743;28;19913;-92
2022/08/03 01:48:44;;;;;;;;;;;24.50;46.90;;;;;;5018874;28;20325;-94
2022/08/03 01:51:10;;;;;;;;;;;24.60;46.90;;;;;;5011025;28;20336;-95
2022/08/03 01:53:36;;;;;;;;;;;24.70;47.00;;;;;;5010880;28;19924;-95
2022/08/03 01:56:02;;;;;;;;;;;24.60;46.80;;;;;;5009082;28;19913;-96
2022/08/03 01:58:28;;;;;;;;;;;24.50;46.90;;;;;;5029557;28;20004;-96
2022/08/03 02:00:58;;;;;;;;;;;24.30;47.00;;;;;;5010661;28;19918;-96
2022/08/03 02:03:24;;;;;;;;;;;24.20;47.20;;;;;;5013032;28;19917;-96
2022/08/03 02:05:51;;;;;;;;;;;24.20;47.30;;;;;;5019848;28;19940;-96
2022/08/03 02:08:17;;;;;;;;;;;24.20;47.30;;;;;;5027446;28;19901;-95
2022/08/03 02:10:44;;;;;;;;;;;24.20;47.30;;;;;;5008319;28;19917;-96
2022/08/03 02:13:11;;;;;;;;;;;24.10;47.50;;;;;;5013869;28;19980;-94
2022/08/03 02:15:37;;;;;;;;;;;24.00;47.60;;;;;;5022046;28;19917;-96
2022/08/03 02:18:04;;;;;;;;;;;24.00;47.80;;;;;;5007449;28;19967;-95
2022/08/03 02:20:31;;;;;;;;;;;24.00;47.80;;;;;;5018829;28;19897;-96
2022/08/03 02:33:28;;;;;;;;;;;24.10;48.00;;;;;;4984133;28;19989;-95
2022/08/03 02:38:42;;;;;;;;;;;23.90;48.00;;;;;;5021487;28;19965;-95
2022/08/03 02:41:29;;;;;;;;;;;23.90;48.20;;;;;;5030380;28;20330;-95
2022/08/03 02:44:30;;;;;;;;;;;23.90;48.20;;;;;;5015318;28;19924;-95
2022/08/03 02:47:19;;;;;;;;;;;23.90;48.10;;;;;;5002339;28;19924;-96
2022/08/03 02:50:17;;;;;;;;;;;;;;;;;;;;;
2022/08/03 02:53:18;;;;;;;;;;;23.70;48.20;;;;;;5024746;28;19975;-96
2022/08/03 02:59:00;;;;;;;;;;;23.80;48.50;;;;;;5019505;28;19936;-96
2022/08/03 03:02:09;;;;;;;;;;;;;;;;;;;;;
2022/08/03 03:04:39;;;;;;;;;;;24.00;48.40;;;;;;4932424;29;20009;-95
2022/08/03 03:07:45;;;;;;;;;;;24.10;48.40;;;;;;4962782;28;19918;-95
2022/08/03 03:10:24;;;;;;;;;;;24.20;48.30;;;;;;4939466;29;20340;-96
2022/08/03 03:12:54;;;;;;;;;;;24.20;48.50;;;;;;4967833;28;20337;-95
2022/08/03 03:15:20;;;;;;;;;;;24.10;48.40;;;;;;5022140;28;19942;-95
2022/08/03 03:17:48;;;;;;;;;;;24.10;48.40;;;;;;5005656;28;19918;-95
2022/08/03 03:20:14;;;;;;;;;;;24.00;48.40;;;;;;5005540;28;19945;-95
2022/08/03 03:22:53;;;;;;;;;;;24.00;48.40;;;;;;4985070;28;19913;-94
2022/08/03 03:25:19;;;;;;;;;;;24.00;48.50;;;;;;4988684;28;19918;-95
2022/08/03 03:27:45;;;;;;;;;;;23.80;48.60;;;;;;4995232;28;19918;-96
2022/08/03 03:30:11;;;;;;;;;;;23.70;48.70;;;;;;4978670;28;19910;-96
2022/08/03 03:32:38;;;;;;;;;;;23.60;48.80;;;;;;5008140;28;19921;-95
2022/08/03 03:35:04;;;;;;;;;;;23.60;48.90;;;;;;4983702;28;19921;-94
2022/08/03 03:37:29;;;;;;;;;;;23.50;48.90;;;;;;5005924;28;19918;-95
2022/08/03 03:39:55;;;;;;;;;;;23.60;49.00;;;;;;4983515;28;19960;-94
2022/08/03 03:42:20;;;;;;;;;;;23.70;49.00;;;;;;4992488;28;19921;-95
2022/08/03 03:44:46;;;;;;;;;;;23.70;48.90;;;;;;4987577;28;20380;-94
2022/08/03 03:47:12;;;;;;;;;;;23.70;48.90;;;;;;5037896;28;19968;-94
2022/08/03 03:49:38;;;;;;;;;;;23.70;49.00;;;;;;5029347;28;19913;-94
2022/08/03 03:52:03;;;;;;;;;;;23.70;49.10;;;;;;5017525;28;19922;-94
2022/08/03 03:54:39;;;;;;;;;;;23.80;49.10;;;;;;5004597;28;19909;-95
2022/08/03 03:57:05;;;;;;;;;;;23.80;49.10;;;;;;5008063;28;20309;-93
2022/08/03 03:59:30;;;;;;;;;;;23.80;49.20;;;;;;5004028;28;20008;-95
2022/08/03 04:01:56;;;;;;;;;;;23.80;49.30;;;;;;5019761;28;19928;-96
2022/08/03 04:15:36;;;;;;;;;;;24.00;50.50;;;;;;4997952;28;19929;-96
2022/08/03 04:18:02;;;;;;;;;;;24.10;50.80;;;;;;5003306;28;20063;-96
2022/08/03 04:20:29;;;;;;;;;;;24.20;50.80;;;;;;5018344;28;19992;-96
2022/08/03 04:22:55;;;;;;;;;;;24.40;50.90;;;;;;5021277;28;19920;-96
2022/08/03 04:25:23;;;;;;;;;;;24.60;51.00;;;;;;4996968;28;19960;-96
2022/08/03 04:27:51;;;;;;;;;;;24.80;51.00;;;;;;4985534;28;19946;-96
2022/08/03 04:30:17;;;;;;;;;;;25.10;51.00;;;;;;5018581;28;19921;-96
2022/08/03 04:32:49;;;;;;;;;;;25.30;50.70;;;;;;5005424;28;20333;-95
2022/08/03 04:35:15;;;;;;;;;;;25.50;50.50;;;;;;5005848;28;19913;-96
2022/08/03 04:37:42;;;;;;;;;;;25.80;50.50;;;;;;5029495;28;20375;-96
2022/08/03 04:40:12;;;;;;;;;;;26.10;50.50;;;;;;5025327;28;19917;-96
2022/08/03 04:42:38;;;;;;;;;;;26.40;50.40;;;;;;5020018;28;19928;-96
2022/08/03 04:45:04;;;;;;;;;;;26.80;50.10;;;;;;5006920;28;19918;-96
2022/08/03 04:47:32;;;;;;;;;;;27.10;49.70;;;;;;5034488;28;20689;-95
2022/08/03 04:49:58;;;;;;;;;;;27.40;49.00;;;;;;4989366;28;19916;-96
2022/08/03 04:52:32;;;;;;;;;;;27.70;48.40;;;;;;5025059;28;20254;-94
2022/08/03 04:54:58;;;;;;;;;;;27.90;47.80;;;;;;5024507;28;19917;-93
2022/08/03 04:57:23;;;;;;;;;;;28.20;47.30;;;;;;5022134;28;20317;-92
2022/08/03 04:59:53;;;;;;;;;;;28.40;47.20;;;;;;5033707;28;19987;-93
2022/08/03 05:05:10;;;;;;;;;;;29.10;46.30;;;;;;5004506;28;19913;-95
2022/08/03 05:07:36;;;;;;;;;;;29.50;46.10;;;;;;5005998;28;19959;-95
2022/08/03 05:10:03;;;;;;;;;;;29.90;45.70;;;;;;5011986;28;19902;-96
2022/08/03 05:12:28;;;;;;;;;;;30.30;45.30;;;;;;4990756;28;19929;-95
2022/08/03 05:14:54;;;;;;;;;;;30.80;44.50;;;;;;5001298;28;19917;-96
2022/08/03 05:17:20;;;;;;;;;;;31.30;43.70;;;;;;5009747;28;20291;-95
2022/08/03 05:19:48;;;;;;;;;;;31.80;43.20;;;;;;5013365;28;20392;-95
2022/08/03 05:22:14;;;;;;;;;;;32.20;42.60;;;;;;5025387;28;20361;-95
2022/08/03 05:24:41;;;;;;;;;;;32.70;41.70;;;;;;5030858;28;20004;-93
2022/08/03 05:27:06;;;;;;;;;;;33.10;41.20;;;;;;5017803;28;19985;-93
2022/08/03 05:29:32;;;;;;;;;;;33.50;40.30;;;;;;5015736;28;19924;-93
2022/08/03 05:31:57;;;;;;;;;;;33.90;39.70;;;;;;5010081;28;20270;-94
2022/08/03 05:34:23;;;;;;;;;;;34.40;39.20;;;;;;5028518;28;19917;-93
2022/08/03 05:36:48;;;;;;;;;;;34.80;38.20;;;;;;5028181;28;19918;-95
2022/08/03 05:39:14;;;;;;;;;;;35.10;37.40;;;;;;5041205;28;19989;-94
2022/08/03 05:41:39;;;;;;;;;;;35.40;36.80;;;;;;5028041;28;19925;-94
2022/08/03 05:44:05;;;;;;;;;;;35.80;36.00;;;;;;5009697;28;19916;-94
2022/08/03 05:46:30;;;;;;;;;;;36.20;35.50;;;;;;5025210;28;19910;-94
2022/08/03 05:48:56;;;;;;;;;;;36.50;35.30;;;;;;5027090;28;19917;-93
2022/08/03 05:51:21;;;;;;;;;;;36.90;34.40;;;;;;5040825;28;19897;-94
2022/08/03 05:53:47;;;;;;;;;;;37.20;33.80;;;;;;5010559;28;20289;-95
2022/08/03 05:56:16;;;;;;;;;;;37.50;33.60;;;;;;5008141;28;19917;-94
2022/08/03 05:58:43;;;;;;;;;;;37.80;33.00;;;;;;5005894;28;19935;-94
2022/08/03 06:01:11;;;;;;;;;;;37.90;32.50;;;;;;5019585;28;19913;-94
2022/08/03 06:03:43;;;;;;;;;;;37.90;31.70;;;;;;5001803;28;19918;-94
2022/08/03 06:06:10;;;;;;;;;;;37.80;31.60;;;;;;5021663;28;19913;-94
2022/08/03 06:08:39;;;;;;;;;;;37.90;31.80;;;;;;5006637;28;19918;-96
2022/08/03 06:11:04;;;;;;;;;;;38.20;31.60;;;;;;5021319;28;19932;-94
2022/08/03 06:13:31;;;;;;;;;;;38.40;31.50;;;;;;5005811;28;19960;-94
2022/08/03 06:15:56;;;;;;;;;;;38.70;31.30;;;;;;5005114;28;19960;-90
2022/08/03 06:18:25;;;;;;;;;;;39.10;31.10;;;;;;5001136;28;19917;-90
2022/08/03 06:20:50;;;;;;;;;;;39.50;30.90;;;;;;5001341;28;20342;-91
2022/08/03 06:23:16;;;;;;;;;;;39.90;30.20;;;;;;4982249;28;19921;-90
2022/08/03 06:26:06;;;;;;;;;;;40.20;29.80;;;;;;4994796;28;19914;-90
2022/08/03 06:28:34;;;;;;;;;;;40.30;29.40;;;;;;5000008;28;19914;-90
2022/08/03 06:31:00;;;;;;;;;;;40.40;29.30;;;;;;4998258;28;19924;-89
2022/08/03 06:33:25;;;;;;;;;;;40.60;29.20;;;;;;5018516;28;20016;-90
2022/08/03 06:35:51;;;;;;;;;;;40.90;28.90;;;;;;5019080;28;20289;-90
2022/08/03 06:38:16;;;;;;;;;;;41.20;28.60;;;;;;5001373;28;19909;-90
2022/08/03 06:40:42;;;;;;;;;;;41.40;28.20;;;;;;4998936;28;19944;-90
2022/08/03 06:43:07;;;;;;;;;;;41.60;28.00;;;;;;4999944;28;20006;-90
2022/08/03 06:45:33;;;;;;;;;;;41.80;27.70;;;;;;5016995;28;19914;-89
2022/08/03 06:48:06;;;;;;;;;;;42.00;27.60;;;;;;5017429;28;19917;-90
2022/08/03 06:50:32;;;;;;;;;;;42.20;27.30;;;;;;5000980;28;19918;-89
2022/08/03 06:52:58;;;;;;;;;;;42.50;27.10;;;;;;5000922;28;19917;-91
2022/08/03 06:55:23;;;;;;;;;;;42.80;26.70;;;;;;5017936;28;20362;-90
2022/08/03 06:57:49;;;;;;;;;;;43.00;25.80;;;;;;5000943;28;20444;-89
2022/08/03 07:00:15;;;;;;;;;;;43.20;25.70;;;;;;4998509;28;19921;-90
2022/08/03 07:02:40;;;;;;;;;;;43.30;25.40;;;;;;5010327;28;19910;-91
2022/08/03 07:05:06;;;;;;;;;;;43.40;25.20;;;;;;5018789;28;20011;-91
2022/08/03 07:07:32;;;;;;;;;;;43.40;24.90;;;;;;5018301;28;19914;-90
2022/08/03 07:09:57;;;;;;;;;;;43.30;24.90;;;;;;5016181;28;19967;-91
2022/08/03 07:12:38;;;;;;;;;;;43.30;24.60;;;;;;5014761;28;19964;-90
2022/08/03 07:15:04;;;;;;;;;;;43.30;24.40;;;;;;5001816;28;19949;-90
2022/08/03 07:17:30;;;;;;;;;;;43.30;24.60;;;;;;5019661;28;20358;-90
2022/08/03 07:19:56;;;;;;;;;;;43.60;24.60;;;;;;5013781;28;20394;-90
2022/08/03 07:22:22;;;;;;;;;;;44.00;24.60;;;;;;5018504;28;19956;-91
2022/08/03 07:24:47;;;;;;;;;;;44.30;24.20;;;;;;5033950;28;19967;-91
2022/08/03 07:27:14;;;;;;;;;;;44.70;24.10;;;;;;5034458;28;19921;-90
2022/08/03 07:29:40;;;;;;;;;;;45.00;23.90;;;;;;5014348;28;19925;-90
2022/08/03 07:32:05;;;;;;;;;;;45.50;23.70;;;;;;5001324;28;19967;-91
2022/08/03 07:34:31;;;;;;;;;;;45.90;23.30;;;;;;5017137;28;19963;-91
2022/08/03 07:36:56;;;;;;;;;;;46.30;22.80;;;;;;5016786;28;20270;-90
2022/08/03 07:41:50;;;;;;;;;;;47.00;21.80;;;;;;5011640;28;19928;-90
2022/08/03 07:44:16;;;;;;;;;;;47.00;21.30;;;;;;5018769;28;19988;-90
2022/08/03 07:46:45;;;;;;;;;;;47.10;21.40;;;;;;4997499;28;19894;-90
2022/08/03 07:49:10;;;;;;;;;;;47.30;21.50;;;;;;5013372;28;20419;-90
2022/08/03 07:51:36;;;;;;;;;;;47.60;21.40;;;;;;4993255;28;19914;-91
2022/08/03 07:54:05;;;;;;;;;;;47.80;21.00;;;;;;5029979;28;20004;-91
2022/08/03 07:56:30;;;;;;;;;;;48.10;20.60;;;;;;5018539;28;19922;-90
2022/08/03 07:58:56;;;;;;;;;;;48.30;20.10;;;;;;5029506;28;19959;-91
2022/08/03 08:01:22;;;;;;;;;;;48.60;19.80;;;;;;5014802;28;19917;-91
2022/08/03 08:03:48;;;;;;;;;;;48.90;19.30;;;;;;5011924;28;19916;-91
2022/08/03 08:06:14;;;;;;;;;;;49.00;19.10;;;;;;5017929;28;20000;-91
2022/08/03 08:08:40;;;;;;;;;;;49.10;18.80;;;;;;5017617;28;19914;-89
2022/08/03 08:11:06;;;;;;;;;;;49.20;18.80;;;;;;5000998;28;20374;-91
2022/08/03 08:13:32;;;;;;;;;;;49.30;18.50;;;;;;5018527;28;19968;-89
2022/08/03 08:15:59;;;;;;;;;;;49.30;18.50;;;;;;5013989;28;20405;-90
2022/08/03 08:18:28;;;;;;;;;;;49.50;18.30;;;;;;5003516;28;19914;-90
2022/08/03 08:20:54;;;;;;;;;;;49.60;17.90;;;;;;5033493;28;19913;-90
2022/08/03 08:23:22;;;;;;;;;;;49.40;17.40;;;;;;5014296;28;19968;-91
2022/08/03 08:25:49;;;;;;;;;;;49.30;17.40;;;;;;4996682;28;19977;-90
2022/08/03 08:28:19;;;;;;;;;;;49.10;17.40;;;;;;4990019;28;20413;-89
2022/08/03 08:30:44;;;;;;;;;;;49.00;17.50;;;;;;5008876;28;19977;-89
2022/08/03 08:33:10;;;;;;;;;;;48.90;17.50;;;;;;4996947;28;19921;-88
2022/08/03 08:35:36;;;;;;;;;;;49.00;17.60;;;;;;5033356;28;19996;-90
2022/08/03 08:38:01;;;;;;;;;;;49.00;17.70;;;;;;4990336;28;19913;-91
2022/08/03 08:40:27;;;;;;;;;;;49.20;17.90;;;;;;5000000;28;20289;-91
2022/08/03 08:42:52;;;;;;;;;;;49.30;18.10;;;;;;5013600;28;19910;-90
2022/08/03 08:45:28;;;;;;;;;;;49.60;17.90;;;;;;5000844;28;19989;-91
2022/08/03 08:47:54;;;;;;;;;;;49.60;17.40;;;;;;5013496;28;19921;-91
2022/08/03 09:11:02;;;;;;;;;;;50.70;17.20;;;;;;5015537;28;20378;-90
2022/08/03 09:13:31;;;;;;;;;;;50.80;17.00;;;;;;4997057;28;19913;-91
2022/08/03 09:16:12;;;;;;;;;;;51.00;16.60;;;;;;5000818;28;19971;-90
2022/08/03 09:18:38;;;;;;;;;;;51.10;16.80;;;;;;5009489;28;20036;-90
2022/08/03 09:21:13;;;;;;;;;;;51.20;16.70;;;;;;4981179;28;19925;-91
2022/08/03 09:23:46;;;;;;;;;;;51.20;16.20;;;;;;4997361;28;19914;-90
2022/08/03 09:26:18;;;;;;;;;;;51.10;16.40;;;;;;5002180;28;19943;-89
2022/08/03 09:28:46;;;;;;;;;;;51.20;16.60;;;;;;5006651;28;19910;-90
2022/08/03 09:31:11;;;;;;;;;;;51.30;16.60;;;;;;4979540;28;19925;-90
2022/08/03 09:33:46;;;;;;;;;;;51.50;16.60;;;;;;4980877;28;19913;-89
2022/08/03 09:36:32;;;;;;;;;;;51.70;16.60;;;;;;4987552;28;20318;-89
2022/08/03 09:39:05;;;;;;;;;;;51.80;16.30;;;;;;4997619;28;19910;-90
2022/08/03 09:41:30;;;;;;;;;;;51.90;16.20;;;;;;4997634;28;19928;-89
2022/08/03 09:43:59;;;;;;;;;;;51.90;15.90;;;;;;5002509;28;20429;-89
2022/08/03 09:46:27;;;;;;;;;;;51.80;15.90;;;;;;4998831;28;19918;-89
2022/08/03 09:49:07;;;;;;;;;;;51.50;15.80;;;;;;4989845;28;19909;-90
2022/08/03 09:51:35;;;;;;;;;;;51.30;16.10;;;;;;4990223;28;20281;-90
2022/08/03 09:54:02;;;;;;;;;;;51.30;16.40;;;;;;5019402;28;20293;-90
2022/08/03 09:56:45;;;;;;;;;;;51.10;16.10;;;;;;5020037;28;19921;-90
2022/08/03 09:59:22;;;;;;;;;;;51.10;16.40;;;;;;5014528;28;19917;-90
2022/08/03 10:01:48;;;;;;;;;;;51.20;16.60;;;;;;5006288;28;19909;-89
2022/08/03 10:04:15;;;;;;;;;;;51.30;16.30;;;;;;5018185;28;20001;-90
2022/08/03 10:07:04;;;;;;;;;;;51.10;16.10;;;;;;5019859;28;19909;-89
2022/08/03 10:09:30;;;;;;;;;;;51.10;16.40;;;;;;5005334;28;19925;-89
2022/08/03 10:11:56;;;;;;;;;;;51.30;16.50;;;;;;5018435;28;20278;-89
2022/08/03 10:14:29;;;;;;;;;;;51.60;16.60;;;;;;5019315;28;20418;-90
2022/08/03 10:16:54;;;;;;;;;;;51.90;16.50;;;;;;5001240;28;19910;-91
2022/08/03 10:19:24;;;;;;;;;;;52.20;16.60;;;;;;5004215;28;19910;-91
2022/08/03 10:21:57;;;;;;;;;;;52.40;16.40;;;;;;5009495;28;19916;-90
2022/08/03 10:24:26;;;;;;;;;;;52.70;16.20;;;;;;5017919;28;20365;-91
2022/08/03 10:26:55;;;;;;;;;;;52.70;15.60;;;;;;5018848;28;20266;-90
2022/08/03 10:29:23;;;;;;;;;;;52.60;15.60;;;;;;5014683;28;19910;-90
2022/08/03 10:31:52;;;;;;;;;;;52.60;15.60;;;;;;5006298;28;19941;-90
2022/08/03 10:34:26;;;;;;;;;;;52.50;15.50;;;;;;5019513;28;19954;-90
2022/08/03 10:36:56;;;;;;;;;;;52.50;15.30;;;;;;5018016;28;19917;-90
2022/08/03 10:39:29;;;;;;;;;;;52.30;15.30;;;;;;5014735;28;20379;-90
2022/08/03 10:41:57;;;;;;;;;;;52.00;15.20;;;;;;4984206;28;20370;-91
2022/08/03 10:44:23;;;;;;;;;;;52.10;15.40;;;;;;5000387;28;19909;-90
2022/08/03 10:46:49;;;;;;;;;;;52.10;15.00;;;;;;4995369;28;20378;-90
2022/08/03 10:49:16;;;;;;;;;;;51.60;14.80;;;;;;5008570;28;19910;-90
2022/08/03 10:51:46;;;;;;;;;;;50.90;15.10;;;;;;5001783;28;19909;-90
2022/08/03 10:54:30;;;;;;;;;;;50.40;15.50;;;;;;5016479;28;19910;-90
2022/08/03 10:59:49;;;;;;;;;;;50.90;16.00;;;;;;5001419;28;20388;-90
2022/08/03 11:02:15;;;;;;;;;;;51.40;16.00;;;;;;5002409;28;19976;-91
2022/08/03 11:04:41;;;;;;;;;;;51.80;15.60;;;;;;5000172;28;19956;-90
2022/08/03 11:07:21;;;;;;;;;;;52.00;15.70;;;;;;5000468;28;19915;-90
2022/08/03 11:09:50;;;;;;;;;;;52.00;15.50;;;;;;5000248;28;19928;-89
2022/08/03 11:12:25;;;;;;;;;;;51.60;15.20;;;;;;4997932;28;20370;-90
2022/08/03 11:14:51;;;;;;;;;;;51.00;15.20;;;;;;4997870;28;19960;-89
2022/08/03 11:17:17;;;;;;;;;;;50.50;15.40;;;;;;5000468;28;20370;-90
2022/08/03 11:19:44;;;;;;;;;;;50.50;15.60;;;;;;4999664;28;19925;-89
2022/08/03 11:22:10;;;;;;;;;;;50.80;15.60;;;;;;5017255;28;19914;-88
2022/08/03 11:24:35;;;;;;;;;;;51.30;15.60;;;;;;5017434;28;20345;-88
2022/08/03 11:27:13;;;;;;;;;;;51.30;15.50;;;;;;5017472;28;19914;-89
2022/08/03 11:29:53;;;;;;;;;;;51.20;15.40;;;;;;5018564;28;20343;-88
2022/08/03 11:32:37;;;;;;;;;;;51.20;15.40;;;;;;5000931;28;19918;-89
2022/08/03 11:35:21;;;;;;;;;;;51.00;15.50;;;;;;5018057;28;19914;-89
2022/08/03 11:37:53;;;;;;;;;;;50.80;15.80;;;;;;5001653;28;20321;-91
2022/08/03 11:40:34;;;;;;;;;;;50.50;15.80;;;;;;5019001;28;19918;-90
2022/08/03 11:43:00;;;;;;;;;;;50.70;15.80;;;;;;5017058;28;20357;-90
2022/08/03 11:45:26;;;;;;;;;;;51.20;15.90;;;;;;5001165;28;19924;-90
2022/08/03 11:47:58;;;;;;;;;;;51.70;15.50;;;;;;4997294;28;20274;-90
2022/08/03 11:50:25;;;;;;;;;;;51.80;15.40;;;;;;4981325;28;19914;-90
2022/08/03 11:52:51;;;;;;;;;;;51.70;15.30;;;;;;5005628;28;19917;-90
2022/08/03 11:55:19;;;;;;;;;;;51.20;15.20;;;;;;5017509;28;19913;-90
2022/08/03 11:57:45;;;;;;;;;;;51.20;15.50;;;;;;4999804;28;19919;-90
2022/08/03 12:00:21;;;;;;;;;;;51.50;15.50;;;;;;5000205;28;19996;-90
2022/08/03 12:02:54;;;;;;;;;;;51.60;15.30;;;;;;4993661;28;20358;-90
2022/08/03 12:05:20;;;;;;;;;;;51.80;15.30;;;;;;4964167;28;20338;-89
2022/08/03 12:07:46;;;;;;;;;;;51.90;15.40;;;;;;4981215;28;19953;-90
2022/08/03 12:10:14;;;;;;;;;;;52.10;15.50;;;;;;4980584;28;19922;-90
2022/08/03 12:12:57;;;;;;;;;;;52.30;15.40;;;;;;4986112;28;19913;-90
2022/08/03 12:18:27;;;;;;;;;;;52.60;14.80;;;;;;4976149;28;19914;-90
2022/08/03 12:21:02;;;;;;;;;;;52.50;14.90;;;;;;4976132;28;20417;-90
2022/08/03 12:23:28;;;;;;;;;;;52.70;14.90;;;;;;5004963;28;19948;-90
2022/08/03 12:26:00;;;;;;;;;;;52.70;14.70;;;;;;4995719;28;19914;-90
2022/08/03 12:28:25;;;;;;;;;;;52.60;14.70;;;;;;4968301;28;20033;-90
2022/08/03 12:30:51;;;;;;;;;;;52.50;15.00;;;;;;4977055;28;20430;-90
2022/08/03 12:33:18;;;;;;;;;;;52.60;15.10;;;;;;4986734;28;19918;-90
2022/08/03 12:35:45;;;;;;;;;;;52.70;15.10;;;;;;4995724;28;19954;-90
2022/08/03 12:38:11;;;;;;;;;;;52.80;15.10;;;;;;4969909;28;19910;-90
2022/08/03 12:40:37;;;;;;;;;;;52.80;15.10;;;;;;4976819;28;19917;-91
2022/08/03 12:43:10;;;;;;;;;;;52.90;15.00;;;;;;4976185;28;19914;-90
2022/08/03 12:45:35;;;;;;;;;;;53.00;14.90;;;;;;4976150;28;20503;-90
2022/08/03 12:48:01;;;;;;;;;;;53.00;14.80;;;;;;4984538;28;19919;-90
2022/08/03 12:50:30;;;;;;;;;;;53.00;14.50;;;;;;4978917;28;19917;-89
2022/08/03 12:52:56;;;;;;;;;;;52.70;14.50;;;;;;4994770;28;19920;-91
2022/08/03 12:55:22;;;;;;;;;;;52.40;14.40;;;;;;4995242;28;20022;-90
2022/08/03 12:57:54;;;;;;;;;;;52.30;14.50;;;;;;4996412;28;19909;-90
2022/08/03 13:00:20;;;;;;;;;;;52.10;14.70;;;;;;5015258;28;19921;-90
2022/08/03 13:02:57;;;;;;;;;;;52.00;14.70;;;;;;5031962;28;19941;-90
2022/08/03 13:05:23;;;;;;;;;;;51.70;14.70;;;;;;5015885;28;20277;-90
2022/08/03 13:07:52;;;;;;;;;;;51.70;14.80;;;;;;5013368;28;19914;-90
2022/08/03 13:10:31;;;;;;;;;;;51.70;15.00;;;;;;5019565;28;19918;-89
2022/08/03 13:13:01;;;;;;;;;;;51.80;15.20;;;;;;5002517;28;19961;-89
2022/08/03 13:15:28;;;;;;;;;;;51.70;15.20;;;;;;5003318;28;19913;-89
2022/08/03 13:17:56;;;;;;;;;;;51.60;15.00;;;;;;5013166;28;19914;-91
2022/08/03 13:20:21;;;;;;;;;;;51.40;15.10;;;;;;4985561;28;20433;-95
2022/08/03 13:22:47;;;;;;;;;;;51.50;15.20;;;;;;4992621;28;19945;-93
2022/08/03 13:25:13;;;;;;;;;;;51.50;15.30;;;;;;5004654;28;19909;-94
2022/08/03 13:27:38;;;;;;;;;;;51.30;15.20;;;;;;4991852;28;19917;-94
2022/08/03 13:30:04;;;;;;;;;;;51.20;15.40;;;;;;5004393;28;20339;-95
2022/08/03 13:32:30;;;;;;;;;;;51.30;15.30;;;;;;5007929;28;19918;-94
2022/08/03 13:34:55;;;;;;;;;;;51.30;15.30;;;;;;5002732;28;19913;-94
2022/08/03 13:37:21;;;;;;;;;;;51.00;15.20;;;;;;5006568;28;19917;-95
2022/08/03 13:39:46;;;;;;;;;;;50.80;15.30;;;;;;4991206;28;19909;-95
2022/08/03 13:42:12;;;;;;;;;;;50.50;15.30;;;;;;5022082;28;19968;-93
2022/08/03 13:44:38;;;;;;;;;;;50.30;15.50;;;;;;5006745;28;19920;-93
2022/08/03 13:47:03;;;;;;;;;;;50.00;15.50;;;;;;5022408;28;20380;-93
2022/08/03 13:49:29;;;;;;;;;;;49.50;15.30;;;;;;5000231;28;19922;-93
2022/08/03 13:51:55;;;;;;;;;;;48.80;15.50;;;;;;5003825;28;19913;-92
2022/08/03 13:54:22;;;;;;;;;;;48.20;16.00;;;;;;5004540;28;19918;-94
2022/08/03 13:56:51;;;;;;;;;;;47.70;16.30;;;;;;4989269;28;19916;-94
2022/08/03 13:59:22;;;;;;;;;;;47.20;16.60;;;;;;4994025;28;20357;-92
2022/08/03 14:01:54;;;;;;;;;;;46.60;17.00;;;;;;5003488;28;19914;-95
2022/08/03 14:04:23;;;;;;;;;;;46.10;17.50;;;;;;5003815;28;20354;-93
2022/08/03 14:06:49;;;;;;;;;;;45.60;17.90;;;;;;4987022;28;19921;-93
2022/08/03 14:09:15;;;;;;;;;;;45.30;18.10;;;;;;4989586;28;20358;-93
2022/08/03 14:11:41;;;;;;;;;;;44.80;18.30;;;;;;5005299;28;19909;-93
2022/08/03 14:14:06;;;;;;;;;;;44.50;18.50;;;;;;5006379;28;20020;-92
2022/08/03 14:16:32;;;;;;;;;;;44.20;18.60;;;;;;5007268;28;19948;-92
2022/08/03 14:18:57;;;;;;;;;;;43.80;18.90;;;;;;5002858;28;19922;-95
2022/08/03 14:21:23;;;;;;;;;;;43.50;19.20;;;;;;5002993;28;19914;-94
2022/08/03 14:23:48;;;;;;;;;;;43.20;19.40;;;;;;5017017;28;20345;-93
2022/08/03 14:26:14;;;;;;;;;;;42.80;19.70;;;;;;5004847;28;19925;-93
2022/08/03 14:28:40;;;;;;;;;;;42.40;20.00;;;;;;5002440;28;19918;-93
2022/08/03 14:31:05;;;;;;;;;;;42.20;20.30;;;;;;5003786;28;19981;-92
2022/08/03 14:33:31;;;;;;;;;;;41.90;20.50;;;;;;5020819;28;19922;-93
2022/08/03 14:35:56;;;;;;;;;;;41.70;20.80;;;;;;5004810;28;19910;-95
2022/08/03 14:38:22;;;;;;;;;;;41.50;21.10;;;;;;5004762;28;20004;-92
2022/08/03 14:40:48;;;;;;;;;;;41.40;21.30;;;;;;5020505;28;20693;-93
2022/08/03 14:43:14;;;;;;;;;;;41.30;21.50;;;;;;5020314;28;19964;-93
2022/08/03 14:45:39;;;;;;;;;;;41.20;21.60;;;;;;5019493;28;19969;-93
2022/08/03 14:48:05;;;;;;;;;;;41.00;21.80;;;;;;5022170;28;20000;-92
2022/08/03 14:50:31;;;;;;;;;;;40.90;22.00;;;;;;5004261;28;19909;-93
2022/08/03 14:52:56;;;;;;;;;;;40.80;22.10;;;;;;5021303;28;19921;-93
2022/08/03 14:55:22;;;;;;;;;;;40.70;22.10;;;;;;5023144;28;19916;-93
2022/08/03 14:57:47;;;;;;;;;;;40.70;22.20;;;;;;5021864;28;19925;-93
2022/08/03 15:00:19;;;;;;;;;;;40.60;22.20;;;;;;5006248;28;19910;-93
2022/08/03 15:02:45;;;;;;;;;;;40.60;22.20;;;;;;5017938;28;19918;-92
2022/08/03 15:05:13;;;;;;;;;;;40.50;22.30;;;;;;5003693;28;19901;-94
2022/08/03 15:07:39;;;;;;;;;;;40.30;22.40;;;;;;4993510;28;19928;-94
2022/08/03 15:10:05;;;;;;;;;;;40.20;22.50;;;;;;5025959;28;19917;-92
2022/08/03 15:12:31;;;;;;;;;;;40.20;22.70;;;;;;5025623;28;19982;-93
2022/08/03 15:14:56;;;;;;;;;;;40.20;22.80;;;;;;5008651;28;19964;-93
2022/08/03 15:17:22;;;;;;;;;;;40.10;22.80;;;;;;5034586;28;19910;-93
2022/08/03 15:19:48;;;;;;;;;;;40.00;22.70;;;;;;5001880;28;19918;-93
2022/08/03 15:22:15;;;;;;;;;;;40.00;22.80;;;;;;4988687;28;19910;-93
2022/08/03 15:24:41;;;;;;;;;;;39.80;22.90;;;;;;5007967;28;19918;-93
2022/08/03 15:27:07;;;;;;;;;;;39.80;23.10;;;;;;5005236;28;19917;-93